Terminal Aerodrome Forecast
Issued by NWS

Home | Current Version | Previous Version | Text Only | Print | Product List | Glossary Off
Versions: 1 2 3 4 5 6 7 8 9 10 11 12 13 14 15 16 17 18 19 20 21

000
FTUS43 KGRB 252335
TAFRHI
TAF
KRHI 252335Z 2600/2624 19008KT P6SM VCSH BKN060
     FM260400 19007KT P6SM OVC030
     FM260600 21007KT P6SM VCSH OVC030 WS020/23035KT
     FM260900 21007KT P6SM VCSH OVC025 WS020/24035KT
     FM261200 22006KT P6SM VCSH OVC025
     FM262200 28005KT P6SM SCT035 BKN100=

USA.gov is the U.S. government's official web portal to all federal, state and local government web resources and services.